Airfield :
LOGIN :

Register | Disclaimer

   EN    FR    IT 

 










Legend :    VFR   Marginal VFR   IFR   Intensive IFR   Very Intensive IFR
Visi :
Ceiling :
>= 8 km
>= 3000ft
5 to 8 km
1000 to 3000 ft
1500m to 5 km
500 to 1000 ft
800 to 1500m
200 to 500 ft
< 800m
< 200 ft
Symbols :   Thunderstorms  Fog  Heavy snow  Heavy precipitations  Wind > 20 kt
SIGMETs :     Misc.  Thunderstorms  Icing  Turbulence  Mountain Waves  Volcanic Ashes







- Airport Elevation : 15 ft
- IATA code : BHD
- Download approach charts


EGAC - George Best Belfast City

CURRENT METAR :
  • 251550Z AUTO 01005KT 9999 BKN032/// OVC043/// 18/14 Q1024

EXPIRED METARs :
  • 251520Z AUTO 02007KT 9999 BKN028/// OVC037/// 18/14 Q1024
  • 251420Z AUTO 01006KT 9999 SCT017/// BKN023/// OVC029/// 17/14 Q1024
  • 251350Z AUTO 04009KT 9999 OVC016/// 17/14 Q1024
  • 251320Z AUTO 04008KT 9999 OVC015/// 17/14 Q1023

TAF TAF EGAC
Valid from the 25 at 15:00 until the 25 at 21:00 UTC


251356Z 2515/2521 04009KT 9999 FEW018 SCT035
ATIS : +44 02890 935 124
No reported NOTAMs for that airfield.
1 SIGMET reported for the Scottish FIR (EGPX) :
 
Embedded thunderstorms
EGPX SIGMET 01 VALID 251300/251700 EGRR
EGPX SCOTTISH FIR EMBD TS FCST WI N5500 E00448 - N5500 E00214 - N5530 E00500 - N5523 E00500 - N5500 E00448 TOP FL350 MOV NE 15KT WKN=



MET'MAP, your aeronautical weather chart ! - Copyright ORBIFLY December 2007 - Disclaimer

ORBIFLY MET'MAP TEAM :

Programming & Development : Alexandra Zaïnal
Concept & Development : Baudouin d'Aumeries
Co-Development & Prog : Marc-Olivier Méhu
Technical & hardware support : Manuel Goepfert

Contact : metmap@orbifly.com




SOURCES & CREDITS :

   NOAA